Time,TemperatureF,DewpointF,PressureIn,WindDirection,WindDirectionDegrees,WindSpeedMPH,WindSpeedGustMPH,Humidity,HourlyPrecipIn,Conditions,Clouds,dailyrainin,SoftwareType,DateUTC
2013-08-06 00:01:00,46.8,40.9,30.13,NNW,329,0.0,0.0,80,0.00,,CLR,0.00,VWS V14.01,2013-08-06 04:01:00,
2013-08-06 00:06:00,46.8,40.9,30.13,NNW,329,0.0,0.0,80,0.00,,CLR,0.00,VWS V14.01,2013-08-06 04:06:00,
2013-08-06 00:11:00,46.6,40.8,30.13,NNW,329,0.0,0.0,80,0.00,,CLR,0.00,VWS V14.01,2013-08-06 04:11:00,
2013-08-06 00:16:00,46.4,40.6,30.13,NNW,329,0.0,0.0,80,0.00,,CLR,0.00,VWS V14.01,2013-08-06 04:16:00,
2013-08-06 00:21:00,46.4,40.6,30.13,NNW,329,0.0,0.0,80,0.00,,CLR,0.00,VWS V14.01,2013-08-06 04:21:00,
2013-08-06 00:26:00,46.4,40.6,30.13,NNW,329,0.0,0.0,80,0.00,,CLR,0.00,VWS V14.01,2013-08-06 04:26:00,
2013-08-06 00:32:00,46.2,40.7,30.13,NNW,329,0.0,0.0,81,0.00,,CLR,0.00,VWS V14.01,2013-08-06 04:32:00,
2013-08-06 00:37:00,46.0,40.5,30.13,NNW,329,0.0,0.0,81,0.00,,CLR,0.00,VWS V14.01,2013-08-06 04:37:00,
2013-08-06 00:42:00,46.0,40.9,30.13,NNW,328,0.0,0.0,82,0.00,,CLR,0.00,VWS V14.01,2013-08-06 04:42:00,
2013-08-06 00:47:00,45.9,40.7,30.13,NNW,328,0.0,0.0,82,0.00,,CLR,0.00,VWS V14.01,2013-08-06 04:47:00,
2013-08-06 00:52:00,45.9,40.7,30.13,NNW,328,0.0,0.0,82,0.00,,CLR,0.00,VWS V14.01,2013-08-06 04:52:00,
2013-08-06 00:57:00,45.9,40.7,30.13,NNW,328,0.0,0.0,82,0.00,,CLR,0.00,VWS V14.01,2013-08-06 04:57:00,
2013-08-06 01:02:00,45.9,40.7,30.13,NNW,328,0.0,0.0,82,0.00,,CLR,0.00,VWS V14.01,2013-08-06 05:02:00,
2013-08-06 01:07:00,45.7,40.8,30.13,NNW,328,0.0,0.0,83,0.00,,CLR,0.00,VWS V14.01,2013-08-06 05:07:00,
2013-08-06 01:12:00,45.5,40.7,30.13,NNW,328,0.0,0.0,83,0.00,,CLR,0.00,VWS V14.01,2013-08-06 05:12:00,
2013-08-06 01:17:00,45.5,40.7,30.13,NNW,328,0.0,0.0,83,0.00,,CLR,0.00,VWS V14.01,2013-08-06 05:17:00,
2013-08-06 01:22:00,45.5,40.7,30.13,NNW,328,0.0,0.0,83,0.00,,CLR,0.00,VWS V14.01,2013-08-06 05:22:00,
2013-08-06 01:27:00,45.5,40.7,30.13,NNW,328,0.0,0.0,83,0.00,,CLR,0.00,VWS V14.01,2013-08-06 05:27:00,
2013-08-06 01:32:00,45.7,41.1,30.13,NNW,329,0.0,0.0,84,0.00,,CLR,0.00,VWS V14.01,2013-08-06 05:32:00,
2013-08-06 01:37:00,45.9,41.3,30.13,NNW,329,0.0,0.0,84,0.00,,CLR,0.00,VWS V14.01,2013-08-06 05:37:00,
2013-08-06 01:42:00,46.0,41.5,30.13,NNW,329,0.0,0.0,84,0.00,,CLR,0.00,VWS V14.01,2013-08-06 05:42:00,
2013-08-06 01:47:00,46.4,41.8,30.13,NNW,328,0.0,0.0,84,0.00,,CLR,0.00,VWS V14.01,2013-08-06 05:47:00,
2013-08-06 01:52:00,46.6,42.0,30.13,NNW,328,0.0,0.0,84,0.00,,CLR,0.00,VWS V14.01,2013-08-06 05:52:00,
2013-08-06 01:57:00,46.8,42.5,30.13,NNW,328,0.0,0.0,85,0.00,,CLR,0.00,VWS V14.01,2013-08-06 05:57:00,
2013-08-06 02:02:00,46.8,42.5,30.13,NNW,328,0.0,0.0,85,0.00,,CLR,0.00,VWS V14.01,2013-08-06 06:02:00,
2013-08-06 02:07:00,46.9,42.7,30.13,NNW,329,0.0,0.0,85,0.00,,CLR,0.00,VWS V14.01,2013-08-06 06:07:00,
2013-08-06 02:12:00,46.8,42.5,30.13,NNW,329,0.0,0.0,85,0.00,,CLR,0.00,VWS V14.01,2013-08-06 06:12:00,
2013-08-06 02:17:00,46.8,42.5,30.13,NNW,328,0.0,0.0,85,0.00,,CLR,0.00,VWS V14.01,2013-08-06 06:17:00,
2013-08-06 02:22:00,46.6,42.3,30.13,NNW,328,0.0,0.0,85,0.00,,CLR,0.00,VWS V14.01,2013-08-06 06:22:00,
2013-08-06 02:27:00,46.6,42.3,30.13,NNW,328,0.0,0.0,85,0.00,,CLR,0.00,VWS V14.01,2013-08-06 06:27:00,
2013-08-06 02:32:00,46.4,42.1,30.13,NNW,328,0.0,0.0,85,0.00,,CLR,0.00,VWS V14.01,2013-08-06 06:32:00,
2013-08-06 02:37:00,46.4,42.1,30.13,NNW,328,0.0,0.0,85,0.00,,CLR,0.00,VWS V14.01,2013-08-06 06:37:00,
2013-08-06 02:42:00,46.2,42.3,30.13,NNW,328,0.0,0.0,86,0.00,,CLR,0.00,VWS V14.01,2013-08-06 06:42:00,
2013-08-06 02:47:00,46.2,42.3,30.13,NNW,328,0.0,0.0,86,0.00,,CLR,0.00,VWS V14.01,2013-08-06 06:47:00,
2013-08-06 02:52:00,46.2,42.3,30.13,NNW,328,0.0,0.0,86,0.00,,CLR,0.00,VWS V14.01,2013-08-06 06:52:00,
2013-08-06 02:57:00,46.4,42.5,30.16,NNW,328,0.0,0.0,86,0.00,,CLR,0.00,VWS V14.01,2013-08-06 06:57:00,
2013-08-06 03:02:00,46.4,42.5,30.16,NNW,328,0.0,0.0,86,0.00,,CLR,0.00,VWS V14.01,2013-08-06 07:02:00,
2013-08-06 03:07:00,46.4,42.5,30.16,NNW,328,0.0,0.0,86,0.00,,CLR,0.00,VWS V14.01,2013-08-06 07:07:00,
2013-08-06 03:12:00,46.4,42.5,30.16,NNW,328,0.0,0.0,86,0.00,,CLR,0.00,VWS V14.01,2013-08-06 07:12:00,
2013-08-06 03:17:00,46.4,42.5,30.16,NNW,328,0.0,0.0,86,0.00,,CLR,0.00,VWS V14.01,2013-08-06 07:17:00,
2013-08-06 03:22:00,46.6,42.6,30.16,NNW,328,0.0,0.0,86,0.00,,CLR,0.00,VWS V14.01,2013-08-06 07:22:00,
2013-08-06 03:27:00,46.6,42.6,30.16,NNW,328,0.0,0.0,86,0.00,,CLR,0.00,VWS V14.01,2013-08-06 07:27:00,
2013-08-06 03:32:00,46.6,42.6,30.16,NNW,328,0.0,0.0,86,0.00,,CLR,0.00,VWS V14.01,2013-08-06 07:32:00,
2013-08-06 03:37:00,46.6,42.6,30.16,NNW,328,0.0,0.0,86,0.00,,CLR,0.00,VWS V14.01,2013-08-06 07:37:00,
2013-08-06 03:42:00,46.6,42.9,30.16,NNW,328,0.0,0.0,87,0.00,,CLR,0.00,VWS V14.01,2013-08-06 07:42:00,
2013-08-06 03:47:00,46.4,42.8,30.16,NNW,328,0.0,0.0,87,0.00,,CLR,0.00,VWS V14.01,2013-08-06 07:47:00,
2013-08-06 03:52:00,46.4,42.8,30.16,NNW,328,0.0,0.0,87,0.00,,CLR,0.00,VWS V14.01,2013-08-06 07:52:00,
2013-08-06 03:57:00,46.4,42.8,30.16,NNW,329,0.0,0.0,87,0.00,,CLR,0.00,VWS V14.01,2013-08-06 07:57:00,
2013-08-06 04:02:00,46.2,42.6,30.16,NNW,329,0.0,0.0,87,0.00,,CLR,0.00,VWS V14.01,2013-08-06 08:02:00,
2013-08-06 04:07:00,46.2,42.6,30.16,NNW,328,0.0,0.0,87,0.00,,CLR,0.00,VWS V14.01,2013-08-06 08:07:00,
2013-08-06 04:12:00,46.2,42.6,30.16,NNW,328,0.0,0.0,87,0.00,,CLR,0.00,VWS V14.01,2013-08-06 08:12:00,
2013-08-06 04:17:00,46.0,42.4,30.16,NNW,328,0.0,0.0,87,0.00,,CLR,0.00,VWS V14.01,2013-08-06 08:17:00,
2013-08-06 04:22:00,45.9,42.5,30.16,NNW,328,0.0,0.0,88,0.00,,CLR,0.00,VWS V14.01,2013-08-06 08:22:00,
2013-08-06 04:27:00,45.9,42.5,30.16,NNW,328,0.0,0.0,88,0.00,,CLR,0.00,VWS V14.01,2013-08-06 08:27:00,
2013-08-06 04:32:00,45.9,42.5,30.16,NNW,328,0.0,0.0,88,0.00,,CLR,0.00,VWS V14.01,2013-08-06 08:32:00,
2013-08-06 04:37:00,45.9,42.5,30.16,NNW,328,0.0,0.0,88,0.00,,CLR,0.00,VWS V14.01,2013-08-06 08:37:00,
2013-08-06 04:42:00,45.5,42.2,30.16,NNW,328,0.0,0.0,88,0.00,,FEW002,0.00,VWS V14.01,2013-08-06 08:42:00,
2013-08-06 04:47:00,45.3,42.0,30.16,NNW,328,0.0,0.0,88,0.00,,FEW002,0.00,VWS V14.01,2013-08-06 08:47:00,
2013-08-06 04:52:00,45.3,42.0,30.16,NNW,328,0.0,0.0,88,0.00,,FEW002,0.00,VWS V14.01,2013-08-06 08:52:00,
2013-08-06 04:57:00,45.0,41.6,30.16,NNW,328,0.0,0.0,88,0.00,,FEW002,0.00,VWS V14.01,2013-08-06 08:57:00,
2013-08-06 05:02:00,45.0,41.6,30.16,NNW,328,0.0,0.0,88,0.00,,FEW002,0.00,VWS V14.01,2013-08-06 09:02:00,
2013-08-06 05:07:00,44.6,41.3,30.16,NNW,328,0.0,0.0,88,0.00,,FEW002,0.00,VWS V14.01,2013-08-06 09:07:00,
2013-08-06 05:12:00,44.6,41.3,30.16,NNW,328,0.0,0.0,88,0.00,,FEW002,0.00,VWS V14.01,2013-08-06 09:12:00,
2013-08-06 05:17:00,44.1,40.7,30.16,NNW,328,0.0,0.0,88,0.00,,FEW002,0.00,VWS V14.01,2013-08-06 09:17:00,
2013-08-06 05:22:00,44.1,41.0,30.16,NNW,329,0.0,0.0,89,0.00,,FEW002,0.00,VWS V14.01,2013-08-06 09:22:00,
2013-08-06 05:27:00,44.1,41.0,30.16,NNW,329,0.0,0.0,89,0.00,,FEW002,0.00,VWS V14.01,2013-08-06 09:27:00,
2013-08-06 05:32:00,43.9,40.8,30.16,NNW,329,0.0,0.0,89,0.00,,FEW002,0.00,VWS V14.01,2013-08-06 09:32:00,
2013-08-06 05:37:00,43.9,40.8,30.16,NNW,328,0.0,0.0,89,0.00,,FEW002,0.00,VWS V14.01,2013-08-06 09:37:00,
2013-08-06 05:42:00,43.9,40.8,30.16,NNW,328,0.0,0.0,89,0.00,,CLR,0.00,VWS V14.01,2013-08-06 09:42:00,
2013-08-06 05:47:00,43.9,40.8,30.16,NNW,328,0.0,0.0,89,0.00,,CLR,0.00,VWS V14.01,2013-08-06 09:47:00,
2013-08-06 05:52:00,44.1,41.0,30.16,NNW,328,0.0,0.0,89,0.00,,CLR,0.00,VWS V14.01,2013-08-06 09:52:00,
2013-08-06 05:57:00,44.2,41.2,30.16,NNW,328,0.0,0.0,89,0.00,,CLR,0.00,VWS V14.01,2013-08-06 09:57:00,
2013-08-06 06:02:00,44.2,41.2,30.16,NNW,328,0.0,0.0,89,0.00,,CLR,0.00,VWS V14.01,2013-08-06 10:02:00,
2013-08-06 06:07:00,44.8,42.0,30.16,NNW,328,0.0,0.0,90,0.00,,CLR,0.00,VWS V14.01,2013-08-06 10:07:00,
2013-08-06 06:12:00,44.8,42.0,30.16,NNW,328,0.0,0.0,90,0.00,,CLR,0.00,VWS V14.01,2013-08-06 10:12:00,
2013-08-06 06:17:00,45.0,42.2,30.16,NNW,328,0.0,0.0,90,0.00,,CLR,0.00,VWS V14.01,2013-08-06 10:17:00,
2013-08-06 06:22:00,45.3,42.6,30.16,NNW,328,0.0,0.0,90,0.00,,CLR,0.00,VWS V14.01,2013-08-06 10:22:00,
2013-08-06 06:27:00,45.3,42.6,30.16,NNW,328,0.0,0.0,90,0.00,,CLR,0.00,VWS V14.01,2013-08-06 10:27:00,
2013-08-06 06:32:00,45.7,42.9,30.16,NNW,328,0.0,0.0,90,0.00,,CLR,0.00,VWS V14.01,2013-08-06 10:32:00,
2013-08-06 06:37:00,46.0,43.3,30.16,NNW,328,0.0,0.0,90,0.00,,CLR,0.00,VWS V14.01,2013-08-06 10:37:00,
2013-08-06 06:42:00,46.0,43.3,30.16,NNW,328,0.0,0.0,90,0.00,,CLR,0.00,VWS V14.01,2013-08-06 10:42:00,
2013-08-06 06:47:00,46.2,43.7,30.16,NNW,328,0.0,0.0,91,0.00,,CLR,0.00,VWS V14.01,2013-08-06 10:47:00,
2013-08-06 06:52:00,46.4,43.6,30.16,NNW,328,0.0,0.0,90,0.00,,CLR,0.00,VWS V14.01,2013-08-06 10:52:00,
2013-08-06 06:57:00,46.2,43.7,30.16,NNW,328,0.0,0.0,91,0.00,,CLR,0.00,VWS V14.01,2013-08-06 10:57:00,
2013-08-06 07:02:00,46.2,43.7,30.16,NNW,328,0.0,0.0,91,0.00,,CLR,0.00,VWS V14.01,2013-08-06 11:02:00,
2013-08-06 07:07:00,46.2,43.7,30.16,NNW,328,0.0,0.0,91,0.00,,CLR,0.00,VWS V14.01,2013-08-06 11:07:00,
2013-08-06 07:12:00,46.2,43.7,30.16,NNW,328,0.0,0.0,91,0.00,,CLR,0.00,VWS V14.01,2013-08-06 11:12:00,
2013-08-06 07:17:00,46.0,43.6,30.16,NNW,328,0.0,0.0,91,0.00,,CLR,0.00,VWS V14.01,2013-08-06 11:17:00,
2013-08-06 07:22:00,46.0,43.6,30.16,NNW,328,0.0,0.0,91,0.00,,CLR,0.00,VWS V14.01,2013-08-06 11:22:00,
2013-08-06 07:27:00,46.2,43.7,30.19,NNW,328,0.0,0.0,91,0.00,,CLR,0.00,VWS V14.01,2013-08-06 11:27:00,
2013-08-06 07:32:00,46.6,44.1,30.19,NNW,328,0.0,0.0,91,0.00,,CLR,0.00,VWS V14.01,2013-08-06 11:32:00,
2013-08-06 07:38:00,46.6,44.1,30.19,NNW,328,0.0,0.0,91,0.00,,CLR,0.00,VWS V14.01,2013-08-06 11:38:00,
2013-08-06 07:43:00,48.4,46.2,30.19,NNW,328,0.0,0.0,92,0.00,,CLR,0.00,VWS V14.01,2013-08-06 11:43:00,
2013-08-06 07:48:00,49.3,47.1,30.19,NNW,328,0.0,0.0,92,0.00,,CLR,0.00,VWS V14.01,2013-08-06 11:48:00,
2013-08-06 07:53:00,49.5,47.2,30.19,NNW,328,0.0,0.0,92,0.00,,CLR,0.00,VWS V14.01,2013-08-06 11:53:00,
2013-08-06 07:57:00,51.3,49.0,30.19,NNW,328,0.0,0.0,92,0.00,,CLR,0.00,VWS V14.01,2013-08-06 11:57:00,
2013-08-06 08:02:00,51.6,49.4,30.19,NNW,328,0.0,0.0,92,0.00,,CLR,0.00,VWS V14.01,2013-08-06 12:02:00,
2013-08-06 08:07:00,52.9,50.6,30.19,NNW,328,0.0,0.0,92,0.00,,CLR,0.00,VWS V14.01,2013-08-06 12:07:00,
2013-08-06 08:12:00,53.8,51.5,30.19,NNW,328,0.0,0.0,92,0.00,,CLR,0.00,VWS V14.01,2013-08-06 12:12:00,
2013-08-06 08:17:00,55.2,52.9,30.19,NNW,328,0.0,0.0,92,0.00,,CLR,0.00,VWS V14.01,2013-08-06 12:17:00,
2013-08-06 08:22:00,55.9,53.7,30.19,NNW,328,0.0,0.0,92,0.00,,CLR,0.00,VWS V14.01,2013-08-06 12:22:00,
2013-08-06 08:27:00,56.3,54.0,30.19,NNW,328,0.0,0.0,92,0.00,,CLR,0.00,VWS V14.01,2013-08-06 12:27:00,
2013-08-06 08:32:00,57.2,54.9,30.19,NNW,328,0.0,0.0,92,0.00,,CLR,0.00,VWS V14.01,2013-08-06 12:32:00,
2013-08-06 08:38:00,57.7,55.4,30.19,NNW,328,0.0,0.0,92,0.00,,CLR,0.00,VWS V14.01,2013-08-06 12:38:00,
2013-08-06 08:43:00,58.1,55.8,30.19,NNW,328,0.0,0.0,92,0.00,,CLR,0.00,VWS V14.01,2013-08-06 12:43:00,
2013-08-06 08:48:00,58.1,55.8,30.19,NNW,328,0.0,0.0,92,0.00,,CLR,0.00,VWS V14.01,2013-08-06 12:48:00,
2013-08-06 08:53:00,57.6,55.3,30.19,NNW,328,0.0,0.0,92,0.00,,CLR,0.00,VWS V14.01,2013-08-06 12:53:00,
2013-08-06 08:58:00,57.4,54.8,30.19,NNW,328,0.0,0.0,91,0.00,,CLR,0.00,VWS V14.01,2013-08-06 12:58:00,
2013-08-06 09:02:00,57.4,54.8,30.19,NNW,328,0.0,0.0,91,0.00,,CLR,0.00,VWS V14.01,2013-08-06 13:02:00,
2013-08-06 09:07:00,57.6,54.7,30.19,NNW,328,0.0,0.0,90,0.00,,CLR,0.00,VWS V14.01,2013-08-06 13:07:00,
2013-08-06 09:12:00,57.9,55.0,30.16,NNW,328,0.0,0.0,90,0.00,,CLR,0.00,VWS V14.01,2013-08-06 13:12:00,
2013-08-06 09:17:00,58.1,55.2,30.16,NNW,328,0.0,0.0,90,0.00,,CLR,0.00,VWS V14.01,2013-08-06 13:17:00,
2013-08-06 09:22:00,58.1,54.9,30.16,NNW,328,0.0,0.0,89,0.00,,CLR,0.00,VWS V14.01,2013-08-06 13:22:00,
2013-08-06 09:28:00,58.3,55.1,30.16,NNW,328,0.0,0.0,89,0.00,,CLR,0.00,VWS V14.01,2013-08-06 13:28:00,
2013-08-06 09:33:00,58.5,55.2,30.16,NNW,328,0.0,0.0,89,0.00,,CLR,0.00,VWS V14.01,2013-08-06 13:33:00,
2013-08-06 09:38:00,58.5,55.2,30.16,NNW,328,0.0,0.0,89,0.00,,CLR,0.00,VWS V14.01,2013-08-06 13:38:00,
2013-08-06 09:43:00,58.8,55.0,30.16,NNW,328,0.0,0.0,87,0.00,,CLR,0.00,VWS V14.01,2013-08-06 13:43:00,
2013-08-06 09:48:00,59.2,55.0,30.16,NNW,328,0.0,0.0,86,0.00,,CLR,0.00,VWS V14.01,2013-08-06 13:48:00,
2013-08-06 09:53:00,59.7,55.2,30.16,NNW,328,0.0,0.0,85,0.00,,CLR,0.00,VWS V14.01,2013-08-06 13:53:00,
2013-08-06 09:58:00,60.1,55.2,30.16,NNW,328,0.0,0.0,84,0.00,,CLR,0.00,VWS V14.01,2013-08-06 13:58:00,
2013-08-06 10:03:00,60.6,55.4,30.16,NNW,328,0.0,0.0,83,0.00,,CLR,0.00,VWS V14.01,2013-08-06 14:03:00,
2013-08-06 10:08:00,61.3,55.5,30.16,NNW,328,0.0,0.0,81,0.00,,CLR,0.00,VWS V14.01,2013-08-06 14:08:00,
2013-08-06 10:13:00,61.3,55.1,30.16,NNW,328,0.0,0.0,80,0.00,,CLR,0.00,VWS V14.01,2013-08-06 14:13:00,
2013-08-06 10:18:00,62.4,54.8,30.16,NNW,328,0.0,0.0,76,0.00,,CLR,0.00,VWS V14.01,2013-08-06 14:18:00,
2013-08-06 10:23:00,63.1,54.7,30.16,NNW,328,0.0,0.0,74,0.00,,CLR,0.00,VWS V14.01,2013-08-06 14:23:00,
2013-08-06 10:28:00,64.2,55.0,30.16,NNW,328,0.0,0.0,72,0.00,,CLR,0.00,VWS V14.01,2013-08-06 14:28:00,
2013-08-06 10:33:00,65.8,55.4,30.16,NNW,328,0.0,0.0,69,0.00,,CLR,0.00,VWS V14.01,2013-08-06 14:33:00,
2013-08-06 10:38:00,65.8,55.4,30.16,NNW,328,0.0,0.0,69,0.00,,CLR,0.00,VWS V14.01,2013-08-06 14:38:00,
2013-08-06 10:43:00,67.5,54.0,30.16,NNW,328,0.0,0.0,62,0.00,,CLR,0.00,VWS V14.01,2013-08-06 14:43:00,
2013-08-06 10:48:00,67.5,54.0,30.16,NNW,328,0.0,0.0,62,0.00,,CLR,0.00,VWS V14.01,2013-08-06 14:48:00,
2013-08-06 10:53:00,68.7,53.8,30.16,NNW,328,0.0,0.0,59,0.00,,CLR,0.00,VWS V14.01,2013-08-06 14:53:00,
2013-08-06 10:58:00,69.4,51.1,30.16,NNW,328,0.0,0.0,52,0.00,,CLR,0.00,VWS V14.01,2013-08-06 14:58:00,
2013-08-06 11:03:00,69.4,49.5,30.16,NNW,328,0.0,0.0,49,0.00,,CLR,0.00,VWS V14.01,2013-08-06 15:03:00,
2013-08-06 11:08:00,70.2,47.8,30.16,NNW,328,0.0,0.0,45,0.00,,CLR,0.00,VWS V14.01,2013-08-06 15:08:00,
2013-08-06 11:13:00,70.2,47.8,30.16,NNW,328,0.0,0.0,45,0.00,,CLR,0.00,VWS V14.01,2013-08-06 15:13:00,
2013-08-06 11:18:00,71.1,46.8,30.16,NNW,328,0.0,0.0,42,0.00,,CLR,0.00,VWS V14.01,2013-08-06 15:18:00,
2013-08-06 11:23:00,72.0,45.7,30.16,NNW,328,0.0,0.0,39,0.00,,CLR,0.00,VWS V14.01,2013-08-06 15:23:00,
2013-08-06 11:28:00,71.8,44.8,30.16,NNW,328,0.0,0.0,38,0.00,,CLR,0.00,VWS V14.01,2013-08-06 15:28:00,
2013-08-06 11:33:00,70.7,43.2,30.16,NNW,328,0.0,0.0,37,0.00,,CLR,0.00,VWS V14.01,2013-08-06 15:33:00,
2013-08-06 11:38:00,70.7,43.2,30.16,NNW,328,0.0,0.0,37,0.00,,CLR,0.00,VWS V14.01,2013-08-06 15:38:00,
2013-08-06 11:43:00,70.2,42.0,30.16,NNW,328,0.0,0.0,36,0.00,,CLR,0.00,VWS V14.01,2013-08-06 15:43:00,
2013-08-06 11:48:00,70.2,42.0,30.16,NNW,328,0.0,0.0,36,0.00,,CLR,0.00,VWS V14.01,2013-08-06 15:48:00,
2013-08-06 11:53:00,68.9,40.2,30.16,NNW,328,0.0,0.0,35,0.00,,CLR,0.00,VWS V14.01,2013-08-06 15:53:00,
2013-08-06 11:58:00,68.4,40.4,30.16,SSE,167,0.0,0.0,36,0.00,,CLR,0.00,VWS V14.01,2013-08-06 15:58:00,
2013-08-06 12:03:00,68.2,39.5,30.16,SSE,166,0.0,0.0,35,0.00,,CLR,0.00,VWS V14.01,2013-08-06 16:03:00,
2013-08-06 12:08:00,67.5,40.3,30.16,SSE,166,0.0,0.0,37,0.00,,CLR,0.00,VWS V14.01,2013-08-06 16:08:00,
2013-08-06 12:13:00,67.1,42.0,30.16,SSE,167,0.0,0.0,40,0.00,,CLR,0.00,VWS V14.01,2013-08-06 16:13:00,
2013-08-06 12:18:00,66.6,42.2,30.16,SSE,167,0.0,0.0,41,0.00,,CLR,0.00,VWS V14.01,2013-08-06 16:18:00,
2013-08-06 12:23:00,65.7,43.2,30.16,SSE,167,0.0,0.0,44,0.00,,CLR,0.00,VWS V14.01,2013-08-06 16:23:00,
2013-08-06 12:28:00,65.3,42.8,30.16,SSE,167,0.0,0.0,44,0.00,,CLR,0.00,VWS V14.01,2013-08-06 16:28:00,
2013-08-06 12:33:00,65.1,44.4,30.16,SSE,167,0.0,0.0,47,0.00,,CLR,0.00,VWS V14.01,2013-08-06 16:33:00,
2013-08-06 12:38:00,65.3,45.1,30.16,SSE,167,0.0,0.0,48,0.00,,CLR,0.00,VWS V14.01,2013-08-06 16:38:00,
2013-08-06 12:43:00,66.4,46.1,30.16,SSE,167,0.0,0.0,48,0.00,,CLR,0.00,VWS V14.01,2013-08-06 16:43:00,
2013-08-06 12:48:00,66.4,46.1,30.16,SSE,167,0.0,0.0,48,0.00,,CLR,0.00,VWS V14.01,2013-08-06 16:48:00,
2013-08-06 12:53:00,68.4,45.6,30.16,SSE,167,0.0,0.0,44,0.00,,CLR,0.00,VWS V14.01,2013-08-06 16:53:00,
2013-08-06 12:58:00,69.4,44.1,30.16,SSE,167,0.0,0.0,40,0.00,,CLR,0.00,VWS V14.01,2013-08-06 16:58:00,
2013-08-06 13:03:00,69.6,42.2,30.16,NNE,21,0.0,0.0,37,0.00,,CLR,0.00,VWS V14.01,2013-08-06 17:03:00,
2013-08-06 13:08:00,70.3,42.9,30.16,NNE,21,0.0,0.0,37,0.00,,CLR,0.00,VWS V14.01,2013-08-06 17:08:00,
2013-08-06 13:13:00,70.9,42.6,30.16,NNE,21,0.0,0.0,36,0.00,,CLR,0.00,VWS V14.01,2013-08-06 17:13:00,
2013-08-06 13:18:00,72.3,43.2,30.16,SSW,192,4.0,4.0,35,0.00,,CLR,0.00,VWS V14.01,2013-08-06 17:18:00,
2013-08-06 13:23:00,72.5,43.3,30.16,SSW,192,4.0,4.0,35,0.00,,CLR,0.00,VWS V14.01,2013-08-06 17:23:00,
2013-08-06 13:28:00,73.0,43.0,30.16,SSW,192,4.0,4.0,34,0.00,,CLR,0.00,VWS V14.01,2013-08-06 17:28:00,
2013-08-06 13:33:00,73.8,42.9,30.16,SSW,192,4.0,4.0,33,0.00,,CLR,0.00,VWS V14.01,2013-08-06 17:33:00,
2013-08-06 13:38:00,73.9,42.2,30.16,SSW,192,4.0,4.0,32,0.00,,CLR,0.00,VWS V14.01,2013-08-06 17:38:00,
2013-08-06 13:43:00,74.1,42.4,30.16,SSW,192,4.0,4.0,32,0.00,,SCT050,0.00,VWS V14.01,2013-08-06 17:43:00,
2013-08-06 13:48:00,73.8,41.3,30.16,South,172,3.6,4.0,31,0.00,,SCT050,0.00,VWS V14.01,2013-08-06 17:48:00,
2013-08-06 13:53:00,73.4,41.0,30.16,South,172,3.6,3.6,31,0.00,,SCT050,0.00,VWS V14.01,2013-08-06 17:53:00,
2013-08-06 13:58:00,73.2,41.6,30.16,SSE,166,3.6,3.6,32,0.00,,SCT050,0.00,VWS V14.01,2013-08-06 17:58:00,
2013-08-06 14:03:00,73.2,41.6,30.16,SSE,166,3.6,3.6,32,0.00,,SCT050,0.00,VWS V14.01,2013-08-06 18:03:00,
2013-08-06 14:08:00,72.9,41.3,30.16,SSE,166,3.6,3.6,32,0.00,,SCT050,0.00,VWS V14.01,2013-08-06 18:08:00,
2013-08-06 14:13:00,72.9,41.3,30.16,SSE,166,3.6,3.6,32,0.00,,SCT050,0.00,VWS V14.01,2013-08-06 18:13:00,
2013-08-06 14:18:00,73.6,41.1,30.16,South,179,4.5,4.5,31,0.00,,SCT050,0.00,VWS V14.01,2013-08-06 18:18:00,
2013-08-06 14:23:00,73.6,41.1,30.16,South,173,4.0,4.5,31,0.00,,SCT050,0.00,VWS V14.01,2013-08-06 18:23:00,
2013-08-06 14:28:00,73.4,41.0,30.16,South,173,4.0,4.5,31,0.00,,SCT050,0.00,VWS V14.01,2013-08-06 18:28:00,
2013-08-06 14:33:00,73.9,41.4,30.16,SE,145,0.0,4.0,31,0.00,,SCT050,0.00,VWS V14.01,2013-08-06 18:33:00,
2013-08-06 14:38:00,73.9,41.4,30.16,SE,145,0.0,4.0,31,0.00,,SCT050,0.00,VWS V14.01,2013-08-06 18:38:00,
2013-08-06 14:43:00,74.5,41.9,30.16,SSE,167,4.9,4.9,31,0.00,,BKN110,0.00,VWS V14.01,2013-08-06 18:43:00,
2013-08-06 14:48:00,74.7,42.0,30.16,South,169,4.0,4.9,31,0.00,,BKN110,0.00,VWS V14.01,2013-08-06 18:48:00,
2013-08-06 14:53:00,74.7,41.2,30.16,South,169,4.0,4.0,30,0.00,,BKN110,0.00,VWS V14.01,2013-08-06 18:53:00,
2013-08-06 14:58:00,74.5,39.3,30.16,South,169,4.0,4.0,28,0.00,,BKN110,0.39,VWS V14.01,2013-08-06 18:58:00,
2013-08-06 15:03:00,74.5,39.3,30.16,South,169,4.0,4.0,28,0.00,,BKN110,0.00,VWS V14.01,2013-08-06 19:03:00,
2013-08-06 15:08:00,75.0,38.8,30.16,SSE,160,5.4,5.4,27,0.00,,BKN110,0.00,VWS V14.01,2013-08-06 19:08:00,
2013-08-06 15:13:00,75.0,38.8,30.16,SSE,160,5.4,5.4,27,0.00,,BKN110,0.00,VWS V14.01,2013-08-06 19:13:00,
2013-08-06 15:18:00,74.7,38.5,30.16,SSE,157,4.0,5.4,27,0.00,,BKN110,0.00,VWS V14.01,2013-08-06 19:18:00,
2013-08-06 15:23:00,74.7,38.5,30.16,South,169,2.7,4.0,27,0.00,,BKN110,0.00,VWS V14.01,2013-08-06 19:23:00,
2013-08-06 15:28:00,73.8,37.7,30.16,South,169,2.7,4.0,27,0.00,,BKN110,0.00,VWS V14.01,2013-08-06 19:28:00,
2013-08-06 15:33:00,74.7,38.5,30.16,South,169,3.1,3.1,27,0.00,,BKN110,0.00,VWS V14.01,2013-08-06 19:33:00,
2013-08-06 15:38:00,74.8,38.7,30.16,South,169,3.1,3.1,27,0.00,,BKN110,0.00,VWS V14.01,2013-08-06 19:38:00,
2013-08-06 15:43:00,74.7,38.5,30.16,SSW,199,3.6,3.6,27,0.00,,OVC110,0.00,VWS V14.01,2013-08-06 19:43:00,
2013-08-06 15:48:00,74.1,37.1,30.16,South,181,3.1,3.6,26,0.00,,OVC110,0.00,VWS V14.01,2013-08-06 19:48:00,
2013-08-06 15:53:00,73.4,37.4,30.16,South,181,3.1,3.1,27,0.00,,OVC110,0.00,VWS V14.01,2013-08-06 19:53:00,
2013-08-06 15:58:00,73.2,36.3,30.16,South,170,3.6,3.6,26,0.00,,OVC110,0.00,VWS V14.01,2013-08-06 19:58:00,
2013-08-06 16:03:00,73.2,36.3,30.16,South,170,3.6,3.6,26,0.00,,OVC110,0.00,VWS V14.01,2013-08-06 20:03:00,
2013-08-06 16:08:00,72.9,37.9,30.16,South,169,2.2,3.6,28,0.00,,OVC110,0.00,VWS V14.01,2013-08-06 20:08:00,
2013-08-06 16:13:00,72.9,37.9,30.16,South,169,2.2,2.2,28,0.00,,OVC110,0.00,VWS V14.01,2013-08-06 20:13:00,
2013-08-06 16:19:00,72.7,36.8,30.16,South,170,2.7,2.7,27,0.00,,OVC110,0.00,VWS V14.01,2013-08-06 20:19:00,
2013-08-06 16:23:00,72.7,36.8,30.16,SSE,162,0.0,3.1,27,0.00,,OVC110,0.00,VWS V14.01,2013-08-06 20:23:00,
2013-08-06 16:29:00,71.6,35.9,30.16,SSE,162,0.0,3.1,27,0.00,,OVC110,0.00,VWS V14.01,2013-08-06 20:29:00,
2013-08-06 16:32:00,71.6,35.9,30.16,South,176,2.2,4.9,27,0.00,,OVC110,0.00,VWS V14.01,2013-08-06 20:32:00,
2013-08-06 16:37:00,71.2,36.5,30.16,South,176,2.2,4.9,28,0.00,,OVC110,0.00,VWS V14.01,2013-08-06 20:37:00,
2013-08-06 16:42:00,70.9,37.1,30.16,South,174,0.0,2.2,29,0.00,,OVC110,0.00,VWS V14.01,2013-08-06 20:42:00,
2013-08-06 16:47:00,70.9,37.1,30.16,South,174,0.0,2.2,29,0.00,,OVC110,0.00,VWS V14.01,2013-08-06 20:47:00,
2013-08-06 16:52:00,70.7,37.8,30.16,South,174,0.0,0.0,30,0.00,,OVC110,0.00,VWS V14.01,2013-08-06 20:52:00,
2013-08-06 16:57:00,70.9,37.9,30.16,South,171,0.0,0.0,30,0.00,,OVC110,0.00,VWS V14.01,2013-08-06 20:57:00,
2013-08-06 17:02:00,71.2,38.2,30.16,South,170,0.0,0.0,30,0.00,,OVC110,0.00,VWS V14.01,2013-08-06 21:02:00,
2013-08-06 17:07:00,71.4,37.5,30.16,SSE,167,2.7,2.7,29,0.00,,OVC110,0.00,VWS V14.01,2013-08-06 21:07:00,
2013-08-06 17:12:00,71.4,37.5,30.16,SSE,167,2.7,2.7,29,0.00,,OVC110,0.00,VWS V14.01,2013-08-06 21:12:00,
2013-08-06 17:17:00,71.1,38.1,30.16,SSE,165,0.0,2.7,30,0.00,,OVC110,0.00,VWS V14.01,2013-08-06 21:17:00,
2013-08-06 17:22:00,70.9,37.1,30.16,SSE,165,0.0,0.0,29,0.00,,OVC110,0.00,VWS V14.01,2013-08-06 21:22:00,
2013-08-06 17:27:00,70.7,36.9,30.16,SSE,155,5.4,5.4,29,0.00,,OVC110,0.00,VWS V14.01,2013-08-06 21:27:00,
2013-08-06 17:32:00,70.7,36.9,30.16,SSE,163,0.0,5.4,29,0.00,,OVC110,0.00,VWS V14.01,2013-08-06 21:32:00,
2013-08-06 17:37:00,70.5,36.8,30.16,SSE,152,4.5,5.4,29,0.00,,OVC110,0.00,VWS V14.01,2013-08-06 21:37:00,
2013-08-06 17:42:00,70.3,36.6,30.16,South,175,0.0,4.5,29,0.00,,FEW080,0.00,VWS V14.01,2013-08-06 21:42:00,
2013-08-06 17:47:00,70.2,37.3,30.16,South,175,0.0,4.5,30,0.00,,FEW080,0.00,VWS V14.01,2013-08-06 21:47:00,
2013-08-06 17:52:00,68.5,38.3,30.16,South,175,0.0,0.0,33,0.00,,FEW080,0.00,VWS V14.01,2013-08-06 21:52:00,
2013-08-06 17:57:00,68.5,38.3,30.16,South,175,0.0,0.0,33,0.00,,FEW080,0.00,VWS V14.01,2013-08-06 21:57:00,
2013-08-06 18:02:00,67.8,39.9,30.16,South,175,0.0,0.0,36,0.00,,FEW080,0.00,VWS V14.01,2013-08-06 22:02:00,
2013-08-06 18:07:00,67.8,39.9,30.16,South,179,0.0,0.0,36,0.00,,FEW080,0.00,VWS V14.01,2013-08-06 22:07:00,
2013-08-06 18:12:00,68.9,41.6,30.16,South,179,0.0,0.0,37,0.00,,FEW080,0.00,VWS V14.01,2013-08-06 22:12:00,
2013-08-06 18:17:00,69.3,41.2,30.16,South,178,0.0,0.0,36,0.00,,FEW080,0.00,VWS V14.01,2013-08-06 22:17:00,
2013-08-06 18:22:00,69.3,41.2,30.16,South,176,0.0,0.0,36,0.00,,FEW080,0.00,VWS V14.01,2013-08-06 22:22:00,
2013-08-06 18:27:00,68.2,40.9,30.16,South,176,0.0,0.0,37,0.00,,FEW080,0.00,VWS V14.01,2013-08-06 22:27:00,
2013-08-06 18:32:00,67.6,41.2,30.16,South,176,0.0,0.0,38,0.00,,FEW080,0.00,VWS V14.01,2013-08-06 22:32:00,
2013-08-06 18:37:00,66.9,41.2,30.16,South,176,0.0,0.0,39,0.00,,FEW080,0.00,VWS V14.01,2013-08-06 22:37:00,
2013-08-06 18:42:00,66.7,41.7,30.16,South,176,0.0,0.0,40,0.00,,CLR,0.00,VWS V14.01,2013-08-06 22:42:00,
2013-08-06 18:47:00,66.7,41.7,30.16,South,176,0.0,0.0,40,0.00,,CLR,0.00,VWS V14.01,2013-08-06 22:47:00,
2013-08-06 18:52:00,65.8,42.7,30.16,South,176,0.0,0.0,43,0.00,,CLR,0.00,VWS V14.01,2013-08-06 22:52:00,
2013-08-06 18:57:00,65.8,42.7,30.16,South,175,0.0,0.0,43,0.00,,CLR,0.00,VWS V14.01,2013-08-06 22:57:00,
2013-08-06 19:02:00,65.7,42.6,30.16,South,175,0.0,0.0,43,0.00,,CLR,0.00,VWS V14.01,2013-08-06 23:02:00,
2013-08-06 19:07:00,65.7,42.6,30.16,South,175,0.0,0.0,43,0.00,,CLR,0.00,VWS V14.01,2013-08-06 23:07:00,
2013-08-06 19:12:00,64.9,43.1,30.16,South,175,0.0,0.0,45,0.00,,CLR,0.00,VWS V14.01,2013-08-06 23:12:00,
2013-08-06 19:17:00,64.8,44.1,30.16,South,175,0.0,0.0,47,0.00,,CLR,0.00,VWS V14.01,2013-08-06 23:17:00,
2013-08-06 19:22:00,64.6,43.9,30.16,South,175,0.0,0.0,47,0.00,,CLR,0.00,VWS V14.01,2013-08-06 23:22:00,
2013-08-06 19:27:00,64.0,44.5,30.16,South,175,0.0,0.0,49,0.00,,CLR,0.00,VWS V14.01,2013-08-06 23:27:00,
2013-08-06 19:32:00,63.7,44.7,30.16,South,175,0.0,0.0,50,0.00,,CLR,0.00,VWS V14.01,2013-08-06 23:32:00,
2013-08-06 19:37:00,63.3,44.9,30.16,South,175,0.0,0.0,51,0.00,,CLR,0.00,VWS V14.01,2013-08-06 23:37:00,
2013-08-06 19:42:00,63.3,44.9,30.16,South,175,0.0,0.0,51,0.00,,CLR,0.00,VWS V14.01,2013-08-06 23:42:00,
2013-08-06 19:47:00,63.3,44.9,30.16,South,175,0.0,0.0,51,0.00,,CLR,0.00,VWS V14.01,2013-08-06 23:47:00,
2013-08-06 19:52:00,61.9,45.5,30.16,South,174,0.0,0.0,55,0.00,,CLR,0.00,VWS V14.01,2013-08-06 23:52:00,
2013-08-06 19:58:00,61.7,45.4,30.16,South,174,0.0,0.0,55,0.00,,CLR,0.00,VWS V14.01,2013-08-06 23:58:00,
2013-08-06 20:03:00,61.0,45.2,30.16,South,175,0.0,0.0,56,0.00,,CLR,0.00,VWS V14.01,2013-08-07 00:03:00,
2013-08-06 20:08:00,60.4,45.6,30.16,South,175,0.0,0.0,58,0.00,,CLR,0.00,VWS V14.01,2013-08-07 00:08:00,
2013-08-06 20:13:00,60.3,45.4,30.16,South,175,0.0,0.0,58,0.00,,CLR,0.00,VWS V14.01,2013-08-07 00:13:00,
2013-08-06 20:18:00,59.7,45.4,30.16,South,175,0.0,0.0,59,0.00,,CLR,0.00,VWS V14.01,2013-08-07 00:18:00,
2013-08-06 20:23:00,59.5,45.2,30.16,South,175,0.0,0.0,59,0.00,,CLR,0.00,VWS V14.01,2013-08-07 00:23:00,
2013-08-06 20:28:00,58.8,45.4,30.16,South,175,0.0,0.0,61,0.00,,CLR,0.00,VWS V14.01,2013-08-07 00:28:00,
2013-08-06 20:33:00,58.8,45.4,30.16,South,175,0.0,0.0,61,0.00,,CLR,0.00,VWS V14.01,2013-08-07 00:33:00,
2013-08-06 20:38:00,58.3,46.2,30.16,South,175,0.0,0.0,64,0.00,,CLR,0.00,VWS V14.01,2013-08-07 00:38:00,
2013-08-06 20:43:00,57.9,45.8,30.16,South,174,0.0,0.0,64,0.00,,CLR,0.00,VWS V14.01,2013-08-07 00:43:00,
2013-08-06 20:48:00,57.7,46.1,30.16,South,175,0.0,0.0,65,0.00,,CLR,0.00,VWS V14.01,2013-08-07 00:48:00,
2013-08-06 20:53:00,57.2,46.4,30.16,South,174,0.0,0.0,67,0.00,,CLR,0.00,VWS V14.01,2013-08-07 00:53:00,
2013-08-06 20:58:00,57.2,47.1,30.16,South,174,0.0,0.0,69,0.00,,CLR,0.00,VWS V14.01,2013-08-07 00:58:00,
2013-08-06 21:03:00,56.8,47.2,30.16,South,175,0.0,0.0,70,0.00,,CLR,0.00,VWS V14.01,2013-08-07 01:03:00,
2013-08-06 21:08:00,56.8,46.8,30.16,South,174,0.0,0.0,69,0.00,,CLR,0.00,VWS V14.01,2013-08-07 01:08:00,
2013-08-06 21:13:00,56.7,47.0,30.16,South,175,0.0,0.0,70,0.00,,CLR,0.00,VWS V14.01,2013-08-07 01:13:00,
2013-08-06 21:18:00,56.7,47.0,30.16,South,174,0.0,0.0,70,0.00,,CLR,0.00,VWS V14.01,2013-08-07 01:18:00,
2013-08-06 21:23:00,56.7,47.4,30.16,South,175,0.0,0.0,71,0.00,,CLR,0.00,VWS V14.01,2013-08-07 01:23:00,
2013-08-06 21:28:00,56.7,47.4,30.16,South,174,0.0,0.0,71,0.00,,CLR,0.00,VWS V14.01,2013-08-07 01:28:00,
2013-08-06 21:33:00,56.7,47.4,30.16,South,175,0.0,0.0,71,0.00,,CLR,0.00,VWS V14.01,2013-08-07 01:33:00,
2013-08-06 21:38:00,56.7,47.8,30.16,South,174,0.0,0.0,72,0.00,,CLR,0.00,VWS V14.01,2013-08-07 01:38:00,
2013-08-06 21:43:00,56.5,47.6,30.16,South,174,0.0,0.0,72,0.00,,FEW070,0.00,VWS V14.01,2013-08-07 01:43:00,
2013-08-06 21:48:00,56.7,47.8,30.16,South,175,0.0,0.0,72,0.00,,FEW070,0.00,VWS V14.01,2013-08-07 01:48:00,
2013-08-06 21:53:00,56.7,48.1,30.16,South,175,0.0,0.0,73,0.00,,FEW070,0.00,VWS V14.01,2013-08-07 01:53:00,
2013-08-06 21:58:00,56.7,48.1,30.16,South,175,0.0,0.0,73,0.00,,FEW070,0.00,VWS V14.01,2013-08-07 01:58:00,
2013-08-06 22:03:00,57.0,48.8,30.16,South,174,0.0,0.0,74,0.00,,FEW070,0.00,VWS V14.01,2013-08-07 02:03:00,
2013-08-06 22:08:00,57.0,48.8,30.16,South,175,0.0,0.0,74,0.00,,FEW070,0.00,VWS V14.01,2013-08-07 02:08:00,
2013-08-06 22:13:00,57.0,48.8,30.16,South,175,0.0,0.0,74,0.00,,FEW070,0.00,VWS V14.01,2013-08-07 02:13:00,
2013-08-06 22:18:00,57.0,48.8,30.16,South,175,0.0,0.0,74,0.00,,FEW070,0.00,VWS V14.01,2013-08-07 02:18:00,
2013-08-06 22:23:00,57.0,48.8,30.16,South,175,0.0,0.0,74,0.00,,FEW070,0.00,VWS V14.01,2013-08-07 02:23:00,
2013-08-06 22:28:00,56.8,48.7,30.16,South,175,0.0,0.0,74,0.00,,FEW070,0.00,VWS V14.01,2013-08-07 02:28:00,
2013-08-06 22:33:00,56.8,49.0,30.16,South,175,0.0,0.0,75,0.00,,FEW070,0.00,VWS V14.01,2013-08-07 02:33:00,
2013-08-06 22:38:00,56.7,48.8,30.16,South,174,0.0,0.0,75,0.00,,FEW070,0.00,VWS V14.01,2013-08-07 02:38:00,
2013-08-06 22:43:00,56.7,48.8,30.16,South,175,0.0,0.0,75,0.00,,CLR,0.00,VWS V14.01,2013-08-07 02:43:00,
2013-08-06 22:48:00,56.5,49.0,30.16,South,174,0.0,0.0,76,0.00,,CLR,0.00,VWS V14.01,2013-08-07 02:48:00,
2013-08-06 22:53:00,56.5,49.0,30.16,South,174,0.0,0.0,76,0.00,,CLR,0.00,VWS V14.01,2013-08-07 02:53:00,
2013-08-06 22:58:00,56.5,49.0,30.16,South,175,0.0,0.0,76,0.00,,CLR,0.00,VWS V14.01,2013-08-07 02:58:00,
2013-08-06 23:03:00,56.3,49.2,30.16,South,175,0.0,0.0,77,0.00,,CLR,0.00,VWS V14.01,2013-08-07 03:03:00,
2013-08-06 23:08:00,56.3,49.2,30.16,South,174,0.0,0.0,77,0.00,,CLR,0.00,VWS V14.01,2013-08-07 03:08:00,
2013-08-06 23:13:00,55.9,48.8,30.16,South,175,0.0,0.0,77,0.00,,CLR,0.00,VWS V14.01,2013-08-07 03:13:00,
2013-08-06 23:18:00,55.9,48.8,30.16,South,174,0.0,0.0,77,0.00,,CLR,0.00,VWS V14.01,2013-08-07 03:18:00,
2013-08-06 23:23:00,55.6,48.8,30.16,South,175,0.0,0.0,78,0.00,,CLR,0.00,VWS V14.01,2013-08-07 03:23:00,
2013-08-06 23:28:00,55.0,48.3,30.16,South,175,0.0,0.0,78,0.00,,CLR,0.00,VWS V14.01,2013-08-07 03:28:00,
2013-08-06 23:33:00,54.9,48.1,30.16,South,175,0.0,0.0,78,0.00,,CLR,0.00,VWS V14.01,2013-08-07 03:33:00,
2013-08-06 23:38:00,54.7,48.3,30.16,South,175,0.0,0.0,79,0.00,,CLR,0.00,VWS V14.01,2013-08-07 03:38:00,
2013-08-06 23:43:00,54.7,48.3,30.16,South,174,0.0,0.0,79,0.00,,CLR,0.00,VWS V14.01,2013-08-07 03:43:00,
2013-08-06 23:48:00,54.3,48.3,30.16,South,174,0.0,0.0,80,0.00,,CLR,0.00,VWS V14.01,2013-08-07 03:48:00,
2013-08-06 23:53:00,54.1,48.1,30.16,South,175,0.0,0.0,80,0.00,,CLR,0.00,VWS V14.01,2013-08-07 03:53:00,
2013-08-06 23:59:00,54.1,48.1,30.16,South,175,0.0,0.0,80,0.00,,CLR,0.00,VWS V14.01,2013-08-07 03:59:00,